Terminal Aerodrome Forecast
Issued by NWS

Home | Current Version | Previous Version | Text Only | Print | Product List | Glossary On
Versions: 1 2 3 4 5 6 7 8 9 10 11 12 13 14 15
047
FTUS46 KSEW 270520
TAFBLI
TAF
KBLI 270520Z 2706/2806 20006KT P6SM SCT025 OVC035
     FM270900 18006KT P6SM SCT025 OVC030
     FM271200 17005KT P6SM OVC025
     FM271800 17006KT P6SM BKN040=

USA.gov is the U.S. government's official web portal to all federal, state and local government web resources and services.